Time;durP1;ratioP1;P1;durP2;ratioP2;P2;SDS_P1;SDS_P2;PMS_P1;PMS_P2;Temp;Humidity;BMP_temperature;BMP_pressure;BME280_temperature;BME280_humidity;BME280_pressure;Samples;Min_cycle;Max_cycle;Signal;HPM_P1;HPM_P2
2021/10/20 00:01:14;;;;;;;5.82;4.45;;;15.70;97.90;;;;;;4978357;28;20471;-63
2021/10/20 00:03:40;;;;;;;4.20;3.40;;;15.70;97.80;;;;;;4977524;28;20034;-63
2021/10/20 00:06:06;;;;;;;7.38;3.78;;;15.70;97.80;;;;;;4979922;28;20046;-63
2021/10/20 00:08:32;;;;;;;6.97;4.50;;;15.70;97.70;;;;;;4984132;28;20049;-63
2021/10/20 00:10:59;;;;;;;5.90;3.78;;;15.70;97.60;;;;;;4977192;28;20394;-63
2021/10/20 00:13:25;;;;;;;4.80;3.58;;;15.70;97.50;;;;;;4975988;28;20019;-63
2021/10/20 00:15:50;;;;;;;6.57;4.18;;;15.70;97.70;;;;;;4978239;28;20034;-63
2021/10/20 00:18:16;;;;;;;5.13;4.07;;;15.70;97.30;;;;;;4978105;28;20155;-63
2021/10/20 00:20:41;;;;;;;5.65;4.25;;;15.70;97.30;;;;;;4977195;28;20434;-63
2021/10/20 00:23:09;;;;;;;5.88;4.40;;;15.70;97.20;;;;;;4985176;28;20113;-63
2021/10/20 00:25:35;;;;;;;4.22;3.65;;;15.70;97.20;;;;;;4983752;28;20018;-63
2021/10/20 00:28:00;;;;;;;5.85;3.80;;;15.70;97.20;;;;;;4977200;28;20034;-63
2021/10/20 00:30:26;;;;;;;5.25;3.83;;;15.60;97.20;;;;;;4973125;28;20022;-63
2021/10/20 00:32:52;;;;;;;5.97;3.60;;;15.60;97.20;;;;;;4973762;28;20022;-63
2021/10/20 00:35:17;;;;;;;5.25;3.38;;;15.60;97.20;;;;;;4977285;28;20126;-63
2021/10/20 00:37:43;;;;;;;6.65;3.30;;;15.60;97.10;;;;;;4981661;28;20019;-63
2021/10/20 00:40:09;;;;;;;4.95;3.15;;;15.60;97.10;;;;;;4975381;28;20118;-63
2021/10/20 00:42:35;;;;;;;7.32;3.58;;;15.60;97.00;;;;;;4975735;28;20031;-63
2021/10/20 00:45:02;;;;;;;5.35;3.47;;;15.60;97.00;;;;;;4976135;28;20025;-63
2021/10/20 00:47:28;;;;;;;7.68;4.07;;;15.60;96.90;;;;;;4976596;28;20018;-63
2021/10/20 00:49:54;;;;;;;6.57;4.63;;;15.60;96.90;;;;;;4977552;28;20027;-63
2021/10/20 00:52:23;;;;;;;5.65;3.47;;;15.60;96.90;;;;;;4983073;28;20050;-63
2021/10/20 00:54:52;;;;;;;5.40;3.55;;;15.60;96.90;;;;;;4976859;28;20023;-63
2021/10/20 00:57:20;;;;;;;6.53;3.47;;;15.60;96.80;;;;;;4971630;28;20084;-63
2021/10/20 00:59:45;;;;;;;3.60;3.03;;;15.70;96.80;;;;;;4976492;28;20491;-63
2021/10/20 01:02:11;;;;;;;3.97;3.28;;;15.60;96.80;;;;;;4979494;28;20053;-63
2021/10/20 01:04:38;;;;;;;4.63;3.38;;;15.70;96.70;;;;;;4979268;28;20041;-63
2021/10/20 01:07:05;;;;;;;5.07;3.58;;;15.70;96.60;;;;;;4978359;28;20174;-63
2021/10/20 01:09:31;;;;;;;8.38;4.32;;;15.70;96.60;;;;;;4977362;28;20577;-63
2021/10/20 01:11:57;;;;;;;5.85;3.70;;;15.70;96.60;;;;;;4985002;28;20125;-63
2021/10/20 01:14:23;;;;;;;5.38;3.03;;;15.70;96.50;;;;;;4976363;28;20941;-63
2021/10/20 01:16:48;;;;;;;4.93;3.85;;;15.70;96.40;;;;;;4969745;28;20035;-63
2021/10/20 01:19:15;;;;;;;5.50;3.08;;;15.70;96.40;;;;;;4976413;28;20029;-64
2021/10/20 01:21:42;;;;;;;7.47;3.20;;;15.70;96.40;;;;;;4976083;28;20031;-63
2021/10/20 01:24:08;;;;;;;5.72;3.33;;;15.70;96.40;;;;;;4975773;28;20027;-63
2021/10/20 01:26:34;;;;;;;7.32;3.03;;;15.70;96.30;;;;;;4972305;28;20022;-63
2021/10/20 01:28:59;;;;;;;6.15;3.33;;;15.70;96.20;;;;;;4974827;28;20091;-63
2021/10/20 01:31:25;;;;;;;7.68;3.45;;;15.70;96.20;;;;;;4975188;28;20031;-63
2021/10/20 01:33:50;;;;;;;5.95;3.00;;;15.70;96.20;;;;;;4977391;28;20546;-63
2021/10/20 01:36:16;;;;;;;5.18;2.80;;;15.70;96.10;;;;;;4957767;28;20027;-63
2021/10/20 01:38:42;;;;;;;4.32;3.38;;;15.70;96.10;;;;;;4978336;28;20077;-63
2021/10/20 01:41:07;;;;;;;3.80;3.00;;;15.80;96.10;;;;;;4979503;28;20422;-63
2021/10/20 01:43:41;;;;;;;4.35;3.05;;;15.80;96.10;;;;;;4973842;28;20019;-63
2021/10/20 01:46:07;;;;;;;7.28;3.53;;;15.80;96.00;;;;;;4971248;28;20429;-64
2021/10/20 01:48:33;;;;;;;4.30;3.15;;;15.80;96.00;;;;;;4983960;28;20026;-64
2021/10/20 01:50:58;;;;;;;3.65;3.20;;;15.70;96.00;;;;;;4978679;28;20019;-64
2021/10/20 01:53:24;;;;;;;6.70;2.85;;;15.80;96.10;;;;;;4979671;28;20499;-64
2021/10/20 01:55:49;;;;;;;4.50;3.28;;;15.70;96.10;;;;;;4981102;28;20544;-64
2021/10/20 01:58:15;;;;;;;5.70;3.47;;;15.70;96.10;;;;;;4973911;28;20030;-65
2021/10/20 02:00:40;;;;;;;3.35;2.90;;;15.70;96.00;;;;;;4976117;28;20057;-64
2021/10/20 02:03:06;;;;;;;4.93;3.30;;;15.70;96.10;;;;;;4971519;28;20134;-64
2021/10/20 02:05:31;;;;;;;5.90;3.08;;;15.70;96.10;;;;;;4977422;28;20436;-64
2021/10/20 02:07:57;;;;;;;4.78;3.50;;;15.70;96.10;;;;;;4976919;28;20470;-64
2021/10/20 02:10:22;;;;;;;5.15;3.10;;;15.70;96.10;;;;;;4977342;28;20034;-64
2021/10/20 02:12:48;;;;;;;5.13;3.50;;;15.70;96.00;;;;;;4975051;28;20042;-64
2021/10/20 02:15:13;;;;;;;5.43;3.03;;;15.70;96.00;;;;;;4977927;28;20027;-64
2021/10/20 02:17:39;;;;;;;5.45;3.20;;;15.70;96.00;;;;;;4978101;28;20022;-64
2021/10/20 02:20:08;;;;;;;3.65;3.30;;;15.70;96.00;;;;;;4975261;28;20026;-64
2021/10/20 02:22:35;;;;;;;5.07;2.92;;;15.70;96.00;;;;;;4979317;28;20085;-65
2021/10/20 02:25:01;;;;;;;4.90;3.30;;;15.70;96.00;;;;;;4983876;28;20545;-64
2021/10/20 02:27:27;;;;;;;5.75;3.30;;;15.70;96.00;;;;;;4979955;28;20061;-64
2021/10/20 02:29:52;;;;;;;4.70;3.47;;;15.70;96.00;;;;;;4992796;28;20049;-64
2021/10/20 02:32:18;;;;;;;6.80;3.20;;;15.70;96.10;;;;;;4978998;28;20029;-64
2021/10/20 02:34:44;;;;;;;5.68;3.50;;;15.70;96.00;;;;;;4975090;28;20045;-64
2021/10/20 02:37:09;;;;;;;5.20;3.58;;;15.70;96.00;;;;;;4975578;28;20029;-64
2021/10/20 02:39:35;;;;;;;4.25;3.30;;;15.70;96.00;;;;;;4973616;28;20051;-65
2021/10/20 02:42:00;;;;;;;4.90;4.10;;;15.70;95.90;;;;;;4975200;28;20030;-64
2021/10/20 02:44:26;;;;;;;5.93;3.80;;;15.70;96.00;;;;;;4975604;28;20027;-64
2021/10/20 02:46:51;;;;;;;5.47;3.58;;;15.70;95.90;;;;;;4976081;28;20360;-64
2021/10/20 02:49:16;;;;;;;4.80;3.50;;;15.70;95.90;;;;;;4981626;28;20022;-64
2021/10/20 02:51:42;;;;;;;4.03;3.33;;;15.70;96.00;;;;;;4974350;28;20114;-64
2021/10/20 02:54:08;;;;;;;5.93;3.45;;;15.70;96.00;;;;;;4980721;28;20018;-64
2021/10/20 02:56:33;;;;;;;5.18;3.55;;;15.70;96.00;;;;;;4978925;28;20054;-64
2021/10/20 02:58:59;;;;;;;4.10;3.33;;;15.70;96.00;;;;;;4973262;28;20015;-64
2021/10/20 03:01:24;;;;;;;4.95;3.50;;;15.70;95.90;;;;;;4985549;28;20023;-64
2021/10/20 03:03:50;;;;;;;6.10;4.00;;;15.70;95.90;;;;;;4988992;28;20023;-64
2021/10/20 03:06:16;;;;;;;6.78;3.35;;;15.70;96.00;;;;;;4977733;28;20092;-64
2021/10/20 03:08:42;;;;;;;5.15;3.30;;;15.70;96.00;;;;;;4976981;28;20038;-64
2021/10/20 03:11:08;;;;;;;8.00;4.13;;;15.80;95.90;;;;;;4980820;28;20026;-64
2021/10/20 03:13:34;;;;;;;4.40;3.67;;;15.80;95.80;;;;;;4973249;28;20057;-64
2021/10/20 03:15:59;;;;;;;5.18;3.28;;;15.80;95.80;;;;;;4973222;28;20046;-64
2021/10/20 03:18:24;;;;;;;7.82;3.97;;;15.80;95.80;;;;;;4979408;28;20506;-64
2021/10/20 03:20:50;;;;;;;5.00;3.47;;;15.80;95.90;;;;;;4978407;28;20037;-64
2021/10/20 03:23:16;;;;;;;4.88;3.70;;;15.80;95.80;;;;;;4980707;28;20021;-64
2021/10/20 03:25:41;;;;;;;5.45;4.15;;;15.80;95.80;;;;;;4974400;28;20510;-64
2021/10/20 03:28:07;;;;;;;5.80;3.90;;;15.80;95.80;;;;;;4978876;28;20492;-64
2021/10/20 03:30:32;;;;;;;5.53;3.80;;;15.80;95.80;;;;;;4955751;28;20502;-64
2021/10/20 03:32:58;;;;;;;5.93;4.07;;;15.80;95.80;;;;;;4978625;28;20047;-64
2021/10/20 03:35:23;;;;;;;5.32;3.70;;;15.80;95.80;;;;;;4978523;28;20041;-64
2021/10/20 03:37:49;;;;;;;5.05;3.92;;;15.80;95.80;;;;;;4979559;28;20403;-64
2021/10/20 03:40:15;;;;;;;5.07;4.07;;;15.80;95.70;;;;;;4982327;28;20069;-64
2021/10/20 03:42:41;;;;;;;5.78;3.53;;;15.80;95.70;;;;;;4976446;28;20139;-64
2021/10/20 03:45:07;;;;;;;3.75;3.30;;;15.80;95.80;;;;;;4976201;28;20039;-64
2021/10/20 03:47:33;;;;;;;4.18;3.78;;;15.80;95.80;;;;;;4975577;28;20078;-64
2021/10/20 03:49:58;;;;;;;4.82;4.32;;;15.80;95.80;;;;;;4977945;28;20615;-64
2021/10/20 03:52:24;;;;;;;6.25;4.30;;;15.80;95.70;;;;;;4978920;28;20073;-65
2021/10/20 03:54:49;;;;;;;5.53;4.45;;;15.80;95.80;;;;;;4979606;28;20019;-64
2021/10/20 03:57:15;;;;;;;5.05;4.05;;;15.80;95.80;;;;;;4975341;28;20390;-64
2021/10/20 03:59:43;;;;;;;5.32;4.03;;;15.80;95.80;;;;;;4976704;28;20034;-65
2021/10/20 04:02:08;;;;;;;6.28;4.40;;;15.80;95.80;;;;;;4983522;28;20030;-64
2021/10/20 04:04:34;;;;;;;6.45;4.07;;;15.80;95.90;;;;;;4978032;28;20019;-64
2021/10/20 04:06:59;;;;;;;5.57;3.75;;;15.80;95.90;;;;;;4979877;28;20450;-64
2021/10/20 04:09:25;;;;;;;6.45;4.43;;;15.90;95.90;;;;;;4965291;28;20535;-64
2021/10/20 04:11:50;;;;;;;5.40;3.97;;;15.80;95.90;;;;;;4977438;28;20436;-64
2021/10/20 04:14:16;;;;;;;5.28;3.75;;;15.90;95.90;;;;;;4978623;28;20375;-64
2021/10/20 04:16:41;;;;;;;6.38;4.32;;;15.90;95.90;;;;;;4979287;28;20019;-64
2021/10/20 04:19:07;;;;;;;6.88;4.53;;;15.90;95.90;;;;;;4977920;28;20018;-64
2021/10/20 04:21:32;;;;;;;5.85;4.35;;;15.90;95.90;;;;;;4971163;28;20022;-64
2021/10/20 04:24:13;;;;;;;6.30;3.83;;;15.90;95.90;;;;;;4977056;28;20027;-64
2021/10/20 04:26:38;;;;;;;4.03;3.60;;;15.90;95.90;;;;;;4980131;28;20026;-64
2021/10/20 04:29:04;;;;;;;6.13;3.90;;;15.90;96.00;;;;;;4976173;28;20433;-64
2021/10/20 04:31:29;;;;;;;5.95;3.75;;;15.90;96.00;;;;;;4972323;28;20041;-64
2021/10/20 04:33:55;;;;;;;7.30;4.45;;;15.90;96.00;;;;;;4979962;28;20065;-64
2021/10/20 04:36:20;;;;;;;7.38;4.80;;;15.90;96.00;;;;;;4979957;28;20027;-64
2021/10/20 04:38:46;;;;;;;5.85;3.97;;;15.90;96.00;;;;;;4977217;28;20025;-64
2021/10/20 04:41:11;;;;;;;7.05;4.20;;;15.90;96.00;;;;;;4970558;28;20049;-64
2021/10/20 04:43:37;;;;;;;7.55;4.63;;;15.90;96.00;;;;;;4982207;28;20117;-64
2021/10/20 04:46:02;;;;;;;8.30;4.40;;;15.90;96.00;;;;;;4977964;28;20431;-64
2021/10/20 04:48:28;;;;;;;5.00;4.35;;;15.90;95.90;;;;;;4976823;28;20104;-64
2021/10/20 04:50:53;;;;;;;5.38;4.88;;;15.90;96.00;;;;;;4978836;28;20101;-64
2021/10/20 04:53:19;;;;;;;8.55;4.40;;;15.90;96.00;;;;;;4974547;28;20031;-64
2021/10/20 04:55:44;;;;;;;5.20;4.35;;;15.90;96.00;;;;;;4973359;28;20038;-64
2021/10/20 04:58:10;;;;;;;6.38;4.15;;;15.90;96.00;;;;;;4976005;28;20019;-64
2021/10/20 05:00:37;;;;;;;7.18;4.85;;;15.90;95.90;;;;;;4978281;28;20030;-64
2021/10/20 05:03:03;;;;;;;7.25;4.82;;;15.90;95.90;;;;;;4977924;28;20026;-64
2021/10/20 05:05:29;;;;;;;5.60;4.38;;;15.90;95.90;;;;;;4972546;28;20390;-64
2021/10/20 05:08:00;;;;;;;6.20;4.03;;;15.90;95.90;;;;;;4978231;28;20051;-64
2021/10/20 05:10:27;;;;;;;5.45;4.78;;;15.90;95.90;;;;;;4976263;28;20105;-64
2021/10/20 05:12:54;;;;;;;6.38;4.55;;;15.90;96.20;;;;;;4980384;28;20027;-64
2021/10/20 05:15:19;;;;;;;5.43;4.43;;;15.90;95.90;;;;;;4976307;28;20019;-65
2021/10/20 05:17:46;;;;;;;7.50;4.57;;;15.90;95.90;;;;;;4985832;28;20023;-64
2021/10/20 05:20:13;;;;;;;6.38;4.43;;;15.80;95.90;;;;;;4980409;28;20054;-64
2021/10/20 05:22:39;;;;;;;7.85;4.60;;;15.80;95.90;;;;;;4992528;28;20026;-64
2021/10/20 05:25:07;;;;;;;5.65;4.40;;;15.80;96.00;;;;;;4975707;28;20085;-64
2021/10/20 05:27:33;;;;;;;5.45;4.80;;;15.80;96.00;;;;;;4976091;28;20491;-64
2021/10/20 05:30:00;;;;;;;6.63;4.72;;;15.80;96.00;;;;;;4992859;28;20030;-64
2021/10/20 05:32:26;;;;;;;5.82;4.28;;;15.80;96.00;;;;;;4980691;28;20482;-64
2021/10/20 05:34:52;;;;;;;6.10;4.65;;;15.80;96.10;;;;;;4974605;28;20018;-64
2021/10/20 05:37:18;;;;;;;6.63;4.65;;;15.80;96.10;;;;;;4978962;28;20533;-64
2021/10/20 05:39:47;;;;;;;7.75;5.13;;;15.80;96.10;;;;;;4991896;28;20025;-64
2021/10/20 05:42:12;;;;;;;7.95;5.05;;;15.80;96.00;;;;;;4992733;28;20474;-64
2021/10/20 05:44:38;;;;;;;9.05;4.60;;;15.70;96.00;;;;;;4993143;28;20034;-64
2021/10/20 05:47:03;;;;;;;8.20;5.18;;;15.70;96.10;;;;;;4974047;28;20066;-64
2021/10/20 05:49:29;;;;;;;8.35;5.00;;;15.70;96.10;;;;;;4972469;28;20026;-64
2021/10/20 05:52:16;;;;;;;;;;;;;;;;;;;;;
2021/10/20 05:54:42;;;;;;;6.13;5.22;;;15.70;96.10;;;;;;4977143;28;20030;-64
2021/10/20 05:57:07;;;;;;;9.30;5.18;;;15.70;96.10;;;;;;4981385;28;20129;-64
2021/10/20 05:59:33;;;;;;;5.85;4.35;;;15.60;96.00;;;;;;4989164;28;20026;-64
2021/10/20 06:01:58;;;;;;;6.57;4.45;;;15.70;96.10;;;;;;4981038;28;20030;-64
2021/10/20 06:04:24;;;;;;;6.13;4.47;;;15.70;96.10;;;;;;4988943;28;20118;-64
2021/10/20 06:06:49;;;;;;;5.55;4.65;;;15.60;96.10;;;;;;4993295;28;20050;-64
2021/10/20 06:09:15;;;;;;;8.15;5.00;;;15.70;96.10;;;;;;4974308;28;20022;-64
2021/10/20 06:11:40;;;;;;;7.45;4.82;;;15.70;96.00;;;;;;4990131;28;20497;-64
2021/10/20 06:14:06;;;;;;;6.88;4.72;;;15.70;96.00;;;;;;4972604;28;20422;-65
2021/10/20 06:17:21;;;;;;;5.78;4.70;;;15.70;96.00;;;;;;4982509;28;20046;-64
2021/10/20 06:26:49;;;;;;;;;;;15.70;96.10;;;;;;4916553;29;20556;-64
2021/10/20 06:29:14;;;;;;;7.07;5.05;;;15.70;96.30;;;;;;4978341;28;19988;-64
2021/10/20 06:32:55;;;;;;;7.25;4.55;;;15.70;96.30;;;;;;4988231;28;20109;-65
2021/10/20 06:35:02;;;;;;;5.95;4.60;;;15.80;96.30;;;;;;4975237;28;20037;-64
2021/10/20 06:37:30;;;;;;;5.85;4.35;;;15.80;96.30;;;;;;4986907;28;20030;-64
2021/10/20 06:39:55;;;;;;;7.28;4.78;;;15.80;96.20;;;;;;4981089;28;20030;-64
2021/10/20 06:42:21;;;;;;;7.78;5.00;;;15.90;96.20;;;;;;4988685;28;20483;-64
2021/10/20 06:44:46;;;;;;;5.93;4.30;;;15.90;96.20;;;;;;4989564;28;20169;-64
2021/10/20 06:54:50;;;;;;;7.78;5.10;;;15.90;96.30;;;;;;4834817;29;20034;-64
2021/10/20 06:57:15;;;;;;;7.80;5.03;;;15.90;96.40;;;;;;4831392;29;20124;-64
2021/10/20 06:59:42;;;;;;;5.80;4.55;;;15.90;96.50;;;;;;4977420;28;20101;-64
2021/10/20 07:02:08;;;;;;;9.73;5.40;;;15.90;96.60;;;;;;4990817;28;20088;-64
2021/10/20 07:07:39;;;;;;;6.43;5.07;;;16.00;96.60;;;;;;4945071;28;20062;-65
2021/10/20 07:10:06;;;;;;;5.80;4.88;;;16.00;96.60;;;;;;4977313;28;20090;-65
2021/10/20 07:12:34;;;;;;;7.82;5.07;;;16.00;96.60;;;;;;4993047;28;20026;-65
2021/10/20 07:14:59;;;;;;;6.88;4.95;;;16.00;96.60;;;;;;4995658;28;20018;-65
2021/10/20 07:17:25;;;;;;;7.38;5.07;;;16.00;96.60;;;;;;4981820;28;20699;-65
2021/10/20 07:28:26;;;;;;;6.95;4.80;;;16.10;96.70;;;;;;4880873;29;20116;-65
2021/10/20 07:30:44;;;;;;;8.00;5.35;;;16.10;96.80;;;;;;4844600;29;20037;-65
2021/10/20 07:33:10;;;;;;;8.57;5.45;;;16.10;97.00;;;;;;4874410;29;20033;-65
2021/10/20 07:42:39;;;;;;;6.45;5.70;;;16.10;97.60;;;;;;4869979;28;20041;-65
2021/10/20 07:45:07;;;;;;;8.10;5.75;;;16.00;98.20;;;;;;4992663;28;20029;-65
2021/10/20 07:47:33;;;;;;;7.10;5.57;;;16.00;98.10;;;;;;4984261;28;20482;-65
2021/10/20 07:49:58;;;;;;;8.18;5.93;;;15.90;98.20;;;;;;4981164;28;20031;-65
2021/10/20 07:52:26;;;;;;;8.00;6.40;;;15.90;98.50;;;;;;4978342;28;20022;-65
2021/10/20 07:54:52;;;;;;;6.80;5.85;;;15.90;98.70;;;;;;4982530;28;20057;-66
2021/10/20 07:57:18;;;;;;;8.82;6.20;;;15.90;98.80;;;;;;4977510;28;20390;-66
2021/10/20 07:59:44;;;;;;;7.60;6.22;;;15.90;98.90;;;;;;4995220;28;20026;-65
2021/10/20 08:02:35;;;;;;;8.20;5.75;;;15.90;99.00;;;;;;4992007;28;20097;-65
2021/10/20 08:05:41;;;;;;;7.53;5.45;;;15.90;99.00;;;;;;4955020;28;20494;-65
2021/10/20 08:20:36;;;;;;;7.28;5.75;;;15.80;99.60;;;;;;4857927;29;20048;-65
2021/10/20 08:23:04;;;;;;;7.22;5.80;;;15.90;99.60;;;;;;4844929;29;20037;-65
2021/10/20 08:25:36;;;;;;;7.90;5.75;;;15.90;99.80;;;;;;4876656;29;20060;-65
2021/10/20 08:28:08;;;;;;;8.77;6.72;;;15.90;99.80;;;;;;4918603;29;20099;-65
2021/10/20 08:30:34;;;;;;;6.75;5.93;;;16.00;99.80;;;;;;4990586;28;20118;-65
2021/10/20 08:33:21;;;;;;;;;;;;;;;;;;;;;
2021/10/20 08:35:47;;;;;;;7.78;6.18;;;16.10;99.80;;;;;;4993551;28;20025;-65
2021/10/20 08:38:13;;;;;;;7.10;6.10;;;16.10;99.70;;;;;;4980328;28;20085;-65
2021/10/20 08:40:55;;;;;;;6.85;6.15;;;16.10;99.50;;;;;;4984162;28;20035;-65
2021/10/20 08:48:30;;;;;;;10.45;6.30;;;16.20;99.30;;;;;;5036465;28;20103;-65
2021/10/20 08:54:22;;;;;;;6.93;6.20;;;16.30;98.90;;;;;;5040369;28;20388;-65
2021/10/20 08:56:47;;;;;;;8.05;6.50;;;16.30;99.00;;;;;;5022574;28;20021;-66
2021/10/20 08:59:15;;;;;;;7.75;6.75;;;16.40;99.10;;;;;;5024970;28;20028;-65
2021/10/20 09:01:41;;;;;;;7.43;6.15;;;16.50;98.90;;;;;;5046156;28;20013;-66
2021/10/20 09:04:07;;;;;;;6.22;5.63;;;16.60;98.70;;;;;;5023077;28;20086;-65
2021/10/20 09:06:34;;;;;;;7.68;5.97;;;16.70;98.60;;;;;;5025439;28;20029;-65
2021/10/20 09:09:04;;;;;;;7.60;6.10;;;16.80;98.30;;;;;;5024024;28;20381;-66
2021/10/20 09:11:33;;;;;;;8.35;6.45;;;16.80;98.10;;;;;;5042721;28;20021;-65
2021/10/20 09:14:13;;;;;;;8.52;6.05;;;16.90;98.00;;;;;;5040613;28;20100;-66
2021/10/20 09:16:41;;;;;;;9.07;6.15;;;16.90;97.70;;;;;;5041521;28;20473;-65
2021/10/20 09:19:33;;;;;;;7.70;6.30;;;16.90;97.90;;;;;;5026754;28;20032;-66
2021/10/20 09:22:02;;;;;;;7.50;6.07;;;17.00;97.80;;;;;;5040744;28;20483;-65
2021/10/20 09:24:37;;;;;;;7.57;6.32;;;17.00;97.70;;;;;;5040900;28;20021;-65
2021/10/20 09:27:03;;;;;;;8.45;6.18;;;17.00;97.80;;;;;;5042563;28;20013;-66
2021/10/20 09:29:33;;;;;;;7.85;6.50;;;17.10;97.70;;;;;;5044854;28;20116;-65
2021/10/20 09:32:00;;;;;;;9.18;6.63;;;17.20;97.50;;;;;;5044977;28;20021;-66
2021/10/20 09:34:36;;;;;;;9.00;7.75;;;17.30;97.40;;;;;;5041301;28;20021;-66
2021/10/20 09:37:06;;;;;;;9.05;5.93;;;17.50;97.20;;;;;;5038336;28;20078;-66
2021/10/20 09:39:32;;;;;;;7.82;5.80;;;17.50;96.90;;;;;;5043019;28;20096;-66
2021/10/20 09:42:12;;;;;;;8.10;6.32;;;17.40;96.90;;;;;;5040300;28;20021;-66
2021/10/20 09:44:48;;;;;;;11.60;6.82;;;17.50;97.00;;;;;;5044306;28;20032;-66
2021/10/20 09:54:20;;;;;;;6.80;5.55;;;17.60;96.80;;;;;;4939812;28;20220;-66
2021/10/20 09:56:52;;;;;;;7.07;5.63;;;17.60;96.70;;;;;;5019466;28;20030;-66
2021/10/20 09:59:18;;;;;;;7.65;5.75;;;17.70;96.70;;;;;;5007875;28;20522;-66
2021/10/20 10:01:45;;;;;;;7.70;6.25;;;18.00;96.60;;;;;;5025455;28;20022;-66
2021/10/20 10:07:35;;;;;;;7.13;5.60;;;18.50;95.70;;;;;;5019276;28;20028;-65
2021/10/20 10:10:00;;;;;;;8.88;5.93;;;18.40;95.10;;;;;;5026262;28;20021;-65
2021/10/20 10:12:27;;;;;;;7.50;5.57;;;18.30;95.20;;;;;;5031672;28;20029;-66
2021/10/20 10:15:49;;;;;;;8.95;5.90;;;18.30;95.20;;;;;;5031785;28;20064;-66
2021/10/20 10:18:15;;;;;;;7.38;5.45;;;18.20;95.20;;;;;;5019933;28;20441;-65
2021/10/20 10:20:43;;;;;;;8.70;5.75;;;18.10;95.50;;;;;;5020584;28;20374;-65
2021/10/20 10:23:18;;;;;;;6.82;5.95;;;18.10;95.40;;;;;;5019030;28;20037;-65
2021/10/20 10:26:00;;;;;;;8.20;5.30;;;18.10;95.40;;;;;;5027587;28;20037;-65
2021/10/20 10:28:34;;;;;;;7.57;5.38;;;18.00;95.50;;;;;;5019707;28;20030;-65
2021/10/20 10:31:09;;;;;;;5.82;5.18;;;18.00;95.60;;;;;;5007251;28;20107;-65
2021/10/20 10:33:40;;;;;;;6.28;5.68;;;17.90;95.70;;;;;;5023365;28;20034;-65
2021/10/20 10:36:10;;;;;;;6.68;5.47;;;17.80;95.90;;;;;;5008541;28;20036;-65
2021/10/20 10:38:59;;;;;;;;;;;;;;;;;;;;;
2021/10/20 10:41:26;;;;;;;6.05;4.90;;;17.80;95.90;;;;;;5028591;28;20017;-65
2021/10/20 10:47:25;;;;;;;6.03;5.38;;;17.80;95.80;;;;;;4967265;28;20044;-65
2021/10/20 10:49:53;;;;;;;7.38;5.22;;;17.80;96.00;;;;;;5024593;28;20018;-65
2021/10/20 10:52:21;;;;;;;7.25;5.22;;;17.70;95.90;;;;;;5019428;28;20383;-65
2021/10/20 10:54:58;;;;;;;6.18;4.95;;;17.70;95.80;;;;;;5006390;28;20021;-65
2021/10/20 10:57:34;;;;;;;7.88;5.30;;;17.80;95.80;;;;;;5002078;28;20157;-65
2021/10/20 11:00:18;;;;;;;6.90;4.93;;;17.80;95.80;;;;;;5021308;28;20510;-65
2021/10/20 11:02:55;;;;;;;6.20;4.90;;;18.10;95.80;;;;;;5020147;28;20094;-66
2021/10/20 11:05:31;;;;;;;5.80;4.35;;;18.60;95.30;;;;;;5022559;28;20437;-65
2021/10/20 11:08:11;;;;;;;7.28;4.93;;;18.70;94.30;;;;;;5019398;28;20022;-64
2021/10/20 11:10:39;;;;;;;5.53;4.15;;;18.60;94.20;;;;;;5021284;28;20022;-64
2021/10/20 11:13:05;;;;;;;6.40;4.95;;;18.50;94.30;;;;;;4997309;28;20029;-65
2021/10/20 11:15:32;;;;;;;6.30;4.55;;;18.60;94.30;;;;;;5020221;28;20044;-64
2021/10/20 11:17:58;;;;;;;5.70;4.40;;;18.60;94.40;;;;;;5013932;28;20036;-65
2021/10/20 11:20:28;;;;;;;5.22;4.72;;;18.50;94.20;;;;;;5012384;28;20041;-64
2021/10/20 11:22:56;;;;;;;8.60;5.00;;;18.50;94.40;;;;;;5022664;28;20444;-64
2021/10/20 11:25:23;;;;;;;6.63;4.18;;;18.40;94.40;;;;;;5018934;28;20029;-64
2021/10/20 11:30:52;;;;;;;7.10;4.10;;;18.30;94.50;;;;;;5013996;28;20037;-65
2021/10/20 11:33:18;;;;;;;6.22;4.63;;;18.20;94.70;;;;;;5020879;28;20477;-64
2021/10/20 11:35:49;;;;;;;5.53;4.25;;;18.20;94.70;;;;;;5019628;28;20076;-64
2021/10/20 11:38:17;;;;;;;5.32;4.65;;;18.20;94.90;;;;;;5018565;28;20025;-64
2021/10/20 11:40:54;;;;;;;5.43;4.53;;;18.30;94.70;;;;;;5024744;28;20096;-64
2021/10/20 11:43:35;;;;;;;4.32;3.90;;;18.40;94.60;;;;;;5020287;28;20025;-65
2021/10/20 11:46:02;;;;;;;5.45;4.40;;;18.50;94.50;;;;;;4996946;28;20038;-64
2021/10/20 11:48:27;;;;;;;5.00;4.47;;;18.50;94.50;;;;;;5022719;28;20060;-65
2021/10/20 11:50:55;;;;;;;5.32;4.72;;;18.40;94.50;;;;;;5020601;28;20497;-64
2021/10/20 11:53:21;;;;;;;6.28;4.70;;;18.40;94.70;;;;;;5024808;28;20544;-64
2021/10/20 11:55:50;;;;;;;5.75;4.40;;;18.50;94.50;;;;;;5023042;28;20032;-65
2021/10/20 11:58:18;;;;;;;6.68;4.35;;;18.50;94.40;;;;;;5024604;28;20463;-65
2021/10/20 12:00:56;;;;;;;6.85;4.40;;;18.50;94.30;;;;;;5023055;28;20423;-64
2021/10/20 12:03:38;;;;;;;6.47;4.47;;;18.50;94.30;;;;;;5018758;28;20032;-64
2021/10/20 12:06:08;;;;;;;5.80;4.43;;;18.40;94.40;;;;;;5023143;28;20036;-64
2021/10/20 12:08:45;;;;;;;5.55;4.90;;;18.40;94.50;;;;;;5009638;28;20072;-64
2021/10/20 12:11:10;;;;;;;6.85;5.35;;;18.30;94.60;;;;;;5021072;28;20018;-64
2021/10/20 12:13:37;;;;;;;6.80;4.68;;;18.30;94.70;;;;;;5000954;28;20064;-64
2021/10/20 12:16:03;;;;;;;5.38;4.50;;;18.20;94.80;;;;;;5020723;28;20021;-64
2021/10/20 12:18:30;;;;;;;5.95;5.03;;;18.20;94.90;;;;;;5019740;28;20063;-64
2021/10/20 12:20:58;;;;;;;8.30;4.60;;;18.20;95.00;;;;;;5034825;28;20049;-64
2021/10/20 12:23:31;;;;;;;6.30;4.95;;;18.20;95.10;;;;;;5015058;28;20032;-64
2021/10/20 12:25:56;;;;;;;5.22;4.70;;;18.20;95.00;;;;;;5019207;28;20041;-64
2021/10/20 12:28:40;;;;;;;;;;;;;;;;;;;;;
2021/10/20 12:31:17;;;;;;;5.65;4.75;;;18.10;95.10;;;;;;5009145;28;20025;-64
2021/10/20 12:33:46;;;;;;;5.40;4.80;;;18.10;95.10;;;;;;5019624;28;20030;-64
2021/10/20 12:36:13;;;;;;;5.72;4.72;;;18.10;95.30;;;;;;5018297;28;20025;-65
2021/10/20 12:38:41;;;;;;;7.18;5.03;;;18.20;95.30;;;;;;5017622;28;20038;-64
2021/10/20 12:41:09;;;;;;;7.40;5.45;;;18.30;95.10;;;;;;5011865;28;20053;-64
2021/10/20 12:43:35;;;;;;;6.53;4.88;;;18.20;95.30;;;;;;5004570;28;20033;-64
2021/10/20 12:46:01;;;;;;;6.28;5.28;;;18.20;95.00;;;;;;5031822;28;20513;-64
2021/10/20 12:48:30;;;;;;;6.57;5.40;;;18.20;95.00;;;;;;5032313;28;20141;-65
2021/10/20 12:50:55;;;;;;;6.13;5.13;;;18.20;95.00;;;;;;5031023;28;20025;-65
2021/10/20 12:53:25;;;;;;;6.50;5.28;;;18.20;95.20;;;;;;5031745;28;20040;-64
2021/10/20 12:55:52;;;;;;;5.97;4.90;;;18.20;95.20;;;;;;4994637;28;20032;-65
2021/10/20 12:58:20;;;;;;;7.45;5.30;;;18.20;95.20;;;;;;5025219;28;20067;-64
2021/10/20 13:00:45;;;;;;;5.57;4.97;;;18.20;95.20;;;;;;5022700;28;20065;-64
2021/10/20 13:03:11;;;;;;;6.50;5.22;;;18.30;95.10;;;;;;5005158;28;20031;-64
2021/10/20 13:05:37;;;;;;;6.20;4.90;;;18.20;95.10;;;;;;5019067;28;20029;-65
2021/10/20 13:08:18;;;;;;;5.13;4.50;;;18.30;95.20;;;;;;5031687;28;20484;-64
2021/10/20 13:10:43;;;;;;;5.70;5.15;;;18.30;95.10;;;;;;5014027;28;20473;-64
2021/10/20 13:13:09;;;;;;;5.43;4.88;;;18.30;95.10;;;;;;5023979;28;20069;-65
2021/10/20 13:15:35;;;;;;;6.50;4.70;;;18.30;95.10;;;;;;5026149;28;20453;-64
2021/10/20 13:18:00;;;;;;;6.20;5.03;;;18.30;95.10;;;;;;5031029;28;20030;-64
2021/10/20 13:20:27;;;;;;;7.93;5.15;;;18.30;95.10;;;;;;5030314;28;20029;-65
2021/10/20 13:22:54;;;;;;;6.28;4.95;;;18.20;95.00;;;;;;5026411;28;20071;-65
2021/10/20 13:25:19;;;;;;;5.50;4.97;;;18.20;95.00;;;;;;5014456;28;20050;-65
2021/10/20 13:27:45;;;;;;;6.20;5.10;;;18.20;95.10;;;;;;5027818;28;20446;-65
2021/10/20 13:30:13;;;;;;;7.45;5.15;;;18.30;95.30;;;;;;5032111;28;20017;-64
2021/10/20 13:32:39;;;;;;;8.27;5.18;;;18.20;95.20;;;;;;5027397;28;20034;-65
2021/10/20 13:35:05;;;;;;;8.13;5.53;;;18.20;95.10;;;;;;5032400;28;20044;-64
2021/10/20 13:37:31;;;;;;;5.38;4.47;;;18.30;95.00;;;;;;5019604;28;20045;-66
2021/10/20 13:39:57;;;;;;;6.60;4.70;;;18.20;95.00;;;;;;5009705;28;20470;-66
2021/10/20 13:42:23;;;;;;;6.88;5.05;;;18.30;95.00;;;;;;5032157;28;20089;-65
2021/10/20 13:45:07;;;;;;;;;;;;;;;;;;;;;
2021/10/20 13:51:07;;;;;;;10.88;5.18;;;18.30;95.00;;;;;;4970936;28;20416;-65
2021/10/20 13:55:04;;;;;;;5.63;4.20;;;18.20;95.10;;;;;;5027538;28;20064;-65
2021/10/20 13:57:10;;;;;;;6.53;4.80;;;18.20;95.10;;;;;;5013393;28;20072;-65
2021/10/20 13:59:36;;;;;;;5.97;4.95;;;18.20;95.30;;;;;;5028196;28;20069;-65
2021/10/20 14:02:01;;;;;;;6.20;4.78;;;18.20;95.30;;;;;;5031854;28;20037;-65
2021/10/20 14:04:42;;;;;;;7.05;4.68;;;18.20;95.20;;;;;;5030784;28;20029;-65
2021/10/20 14:07:10;;;;;;;8.48;4.68;;;18.20;95.30;;;;;;5021321;28;20030;-65
2021/10/20 14:09:36;;;;;;;10.52;5.13;;;18.20;95.30;;;;;;5023860;28;20010;-65
2021/10/20 14:12:04;;;;;;;6.05;4.38;;;18.10;95.30;;;;;;5030391;28;20017;-65
2021/10/20 14:14:30;;;;;;;6.47;4.55;;;18.10;95.40;;;;;;5020715;28;20041;-65